Time;durP1;ratioP1;P1;durP2;ratioP2;P2;SDS_P1;SDS_P2;PMS_P1;PMS_P2;Temp;Humidity;BMP_temperature;BMP_pressure;BME280_temperature;BME280_humidity;BME280_pressure;Samples;Min_cycle;Max_cycle;Signal;HPM_P1;HPM_P2
2023/12/19 00:02:32;;;;;;;;;;;16.60;60.40;;;;;;10219268;28;93727;-48
2023/12/19 00:07:34;;;;;;;;;;;16.60;60.40;;;;;;10229918;28;93084;-50
2023/12/19 00:12:37;;;;;;;;;;;16.60;60.40;;;;;;10240748;28;97022;-48
2023/12/19 00:17:40;;;;;;;;;;;16.60;60.70;;;;;;10220056;28;93550;-51
2023/12/19 00:22:42;;;;;;;;;;;16.50;60.60;;;;;;10214809;28;94752;-47
2023/12/19 00:27:45;;;;;;;;;;;16.50;61.10;;;;;;10220104;28;94442;-50
2023/12/19 00:32:46;;;;;;;;;;;16.50;61.30;;;;;;10212512;28;94117;-51
2023/12/19 00:37:49;;;;;;;;;;;16.50;61.40;;;;;;10217567;28;93457;-47
2023/12/19 00:42:50;;;;;;;;;;;16.50;62.20;;;;;;10226246;28;93806;-47
2023/12/19 00:47:52;;;;;;;;;;;16.50;61.00;;;;;;10231588;28;92803;-48
2023/12/19 00:52:54;;;;;;;;;;;16.50;60.80;;;;;;10224248;28;93624;-49
2023/12/19 00:57:56;;;;;;;;;;;16.50;60.70;;;;;;10236282;28;94512;-50
2023/12/19 01:02:58;;;;;;;;;;;16.50;60.40;;;;;;10215771;28;96662;-50
2023/12/19 01:08:00;;;;;;;;;;;16.50;60.40;;;;;;10204162;28;94521;-48
2023/12/19 01:13:02;;;;;;;;;;;16.50;60.30;;;;;;10248786;28;94536;-47
2023/12/19 01:18:04;;;;;;;;;;;16.40;60.30;;;;;;10228557;28;93435;-49
2023/12/19 01:23:06;;;;;;;;;;;16.40;60.60;;;;;;10234845;28;94134;-51
2023/12/19 01:28:08;;;;;;;;;;;16.40;60.70;;;;;;10224994;28;94494;-50
2023/12/19 01:33:12;;;;;;;;;;;16.40;60.70;;;;;;10243533;28;93591;-46
2023/12/19 01:38:15;;;;;;;;;;;16.40;60.50;;;;;;10236362;28;93430;-50
2023/12/19 01:43:20;;;;;;;;;;;16.40;60.40;;;;;;10232557;28;94588;-48
2023/12/19 01:48:22;;;;;;;;;;;16.40;60.20;;;;;;10241041;28;94573;-47
2023/12/19 01:53:24;;;;;;;;;;;16.40;60.00;;;;;;10230049;28;96493;-50
2023/12/19 01:58:28;;;;;;;;;;;16.40;59.90;;;;;;10231813;28;93436;-47
2023/12/19 02:03:31;;;;;;;;;;;16.40;60.00;;;;;;10674139;22;95574;-45
2023/12/19 02:08:34;;;;;;;;;;;16.40;60.00;;;;;;10277749;28;93523;-46
2023/12/19 02:13:37;;;;;;;;;;;16.30;60.10;;;;;;10319088;28;94012;-47
2023/12/19 02:18:38;;;;;;;;;;;16.30;60.30;;;;;;10322691;28;94428;-45
2023/12/19 02:23:40;;;;;;;;;;;16.30;60.40;;;;;;10320041;28;92888;-49
2023/12/19 02:28:42;;;;;;;;;;;16.30;60.20;;;;;;10309089;28;93597;-45
2023/12/19 02:33:44;;;;;;;;;;;16.30;60.00;;;;;;10321960;28;94166;-48
2023/12/19 02:38:45;;;;;;;;;;;16.30;60.10;;;;;;10310335;28;94546;-50
2023/12/19 02:43:47;;;;;;;;;;;16.40;59.70;;;;;;10320874;28;95804;-45
2023/12/19 02:48:56;;;;;;;;;;;16.40;59.50;;;;;;10311599;28;94204;-44
2023/12/19 02:53:58;;;;;;;;;;;16.40;59.30;;;;;;10326411;28;94498;-45
2023/12/19 02:59:00;;;;;;;;;;;16.40;59.10;;;;;;10305466;28;94097;-45
2023/12/19 03:04:01;;;;;;;;;;;16.30;59.30;;;;;;10326106;28;93401;-48
2023/12/19 03:09:04;;;;;;;;;;;16.30;59.60;;;;;;10325948;28;94523;-45
2023/12/19 03:14:05;;;;;;;;;;;16.30;59.80;;;;;;10328179;28;93466;-45
2023/12/19 03:19:07;;;;;;;;;;;16.30;59.70;;;;;;10325406;28;92730;-50
2023/12/19 03:24:09;;;;;;;;;;;16.30;59.70;;;;;;10319665;28;94019;-45
2023/12/19 03:29:10;;;;;;;;;;;16.30;59.40;;;;;;10327748;28;93917;-49
2023/12/19 03:34:12;;;;;;;;;;;16.30;59.20;;;;;;10324105;28;95265;-44
2023/12/19 03:39:14;;;;;;;;;;;16.30;59.00;;;;;;10322875;28;93764;-48
2023/12/19 03:44:16;;;;;;;;;;;16.30;59.00;;;;;;10309391;28;94035;-48
2023/12/19 03:49:17;;;;;;;;;;;16.30;58.80;;;;;;10323342;28;93718;-47
2023/12/19 03:54:19;;;;;;;;;;;16.30;58.60;;;;;;10322762;28;93409;-46
2023/12/19 03:59:21;;;;;;;;;;;16.30;59.00;;;;;;10314250;28;93403;-45
2023/12/19 04:04:23;;;;;;;;;;;16.20;59.30;;;;;;10322759;28;93889;-45
2023/12/19 04:09:26;;;;;;;;;;;16.20;59.50;;;;;;10324358;28;93488;-50
2023/12/19 04:14:31;;;;;;;;;;;16.20;59.70;;;;;;10318119;28;93300;-45
2023/12/19 04:19:32;;;;;;;;;;;16.10;59.80;;;;;;10323754;28;94197;-48
2023/12/19 04:24:34;;;;;;;;;;;16.20;60.00;;;;;;10316746;28;95942;-47
2023/12/19 04:29:38;;;;;;;;;;;16.20;60.10;;;;;;10323628;28;93539;-49
2023/12/19 04:34:41;;;;;;;;;;;16.20;60.20;;;;;;10323688;28;93757;-48
2023/12/19 04:39:42;;;;;;;;;;;16.10;60.30;;;;;;10311476;28;93464;-49
2023/12/19 04:44:45;;;;;;;;;;;16.10;60.30;;;;;;10317466;28;93918;-50
2023/12/19 04:49:47;;;;;;;;;;;16.10;60.50;;;;;;10308751;28;93598;-45
2023/12/19 04:54:49;;;;;;;;;;;16.10;60.50;;;;;;10329760;28;94406;-44
2023/12/19 04:59:51;;;;;;;;;;;16.10;60.70;;;;;;10311637;28;92851;-46
2023/12/19 05:04:53;;;;;;;;;;;16.10;60.80;;;;;;10330369;28;94650;-47
2023/12/19 05:09:54;;;;;;;;;;;16.10;60.90;;;;;;10329952;28;93372;-46
2023/12/19 05:14:56;;;;;;;;;;;16.10;60.90;;;;;;10327129;28;96775;-50
2023/12/19 05:20:01;;;;;;;;;;;16.10;61.00;;;;;;10328086;28;93771;-48
2023/12/19 05:25:05;;;;;;;;;;;16.10;61.00;;;;;;10323580;28;94558;-50
2023/12/19 05:30:07;;;;;;;;;;;16.00;61.10;;;;;;10329577;28;94276;-47
2023/12/19 05:35:09;;;;;;;;;;;16.00;61.20;;;;;;10329736;28;94098;-46
2023/12/19 05:40:10;;;;;;;;;;;16.00;61.20;;;;;;10328379;28;94101;-46
2023/12/19 05:45:12;;;;;;;;;;;16.00;61.40;;;;;;10329098;28;93309;-45
2023/12/19 05:50:14;;;;;;;;;;;16.10;61.50;;;;;;10329368;28;92766;-46
2023/12/19 05:55:16;;;;;;;;;;;16.30;61.30;;;;;;10330045;28;93445;-47
2023/12/19 06:00:18;;;;;;;;;;;16.60;60.80;;;;;;10329295;28;94487;-46
2023/12/19 06:05:19;;;;;;;;;;;16.80;60.30;;;;;;10307112;28;95223;-47
2023/12/19 06:10:22;;;;;;;;;;;16.90;60.10;;;;;;10327516;28;93442;-49
2023/12/19 06:15:23;;;;;;;;;;;16.90;60.00;;;;;;10323160;28;93759;-47
2023/12/19 06:20:25;;;;;;;;;;;16.90;59.90;;;;;;10328458;28;94890;-47
2023/12/19 06:25:27;;;;;;;;;;;16.90;61.50;;;;;;10326114;28;93444;-51
2023/12/19 06:30:29;;;;;;;;;;;17.00;61.80;;;;;;10329333;28;94388;-47
2023/12/19 06:35:39;;;;;;;;;;;16.90;62.00;;;;;;10325254;28;94425;-47
2023/12/19 06:40:41;;;;;;;;;;;16.80;62.00;;;;;;10321984;28;93380;-46
2023/12/19 06:45:43;;;;;;;;;;;16.90;62.20;;;;;;10327624;28;93488;-47
2023/12/19 06:50:45;;;;;;;;;;;17.00;63.60;;;;;;10321553;28;93666;-49
2023/12/19 06:55:46;;;;;;;;;;;17.10;63.80;;;;;;10326007;28;96492;-49
2023/12/19 07:00:48;;;;;;;;;;;17.10;64.00;;;;;;10328659;28;94511;-47
2023/12/19 07:05:52;;;;;;;;;;;17.10;63.60;;;;;;10328724;28;95674;-50
2023/12/19 07:10:54;;;;;;;;;;;17.00;63.60;;;;;;10328749;28;92845;-52
2023/12/19 07:15:56;;;;;;;;;;;17.00;63.50;;;;;;10327161;28;93450;-53
2023/12/19 07:20:57;;;;;;;;;;;17.00;63.40;;;;;;10316315;28;94098;-52
2023/12/19 07:25:59;;;;;;;;;;;16.90;63.10;;;;;;10319640;28;93246;-48
2023/12/19 07:31:01;;;;;;;;;;;16.90;63.10;;;;;;10328253;28;93133;-45
2023/12/19 07:36:03;;;;;;;;;;;16.80;63.30;;;;;;10324372;28;93582;-48
2023/12/19 07:41:05;;;;;;;;;;;16.80;63.50;;;;;;10326728;28;93533;-49
2023/12/19 07:46:06;;;;;;;;;;;16.70;63.90;;;;;;10317760;28;96360;-45
2023/12/19 07:51:14;;;;;;;;;;;16.70;63.80;;;;;;10327135;28;93922;-47
2023/12/19 07:56:16;;;;;;;;;;;16.60;64.00;;;;;;10326306;28;94601;-45
2023/12/19 08:01:17;;;;;;;;;;;16.60;63.90;;;;;;10326337;28;93797;-50
2023/12/19 08:06:21;;;;;;;;;;;16.60;63.70;;;;;;10324753;28;115075;-55
2023/12/19 08:11:23;;;;;;;;;;;16.50;63.40;;;;;;10322037;28;94069;-45
2023/12/19 08:16:25;;;;;;;;;;;16.50;63.50;;;;;;10325762;28;92454;-49
2023/12/19 08:21:27;;;;;;;;;;;16.50;63.70;;;;;;10325751;28;92790;-50
2023/12/19 08:26:29;;;;;;;;;;;16.40;63.60;;;;;;10324614;28;93502;-45
2023/12/19 08:31:31;;;;;;;;;;;16.40;63.80;;;;;;10325348;28;93963;-47
2023/12/19 08:36:33;;;;;;;;;;;16.40;65.60;;;;;;10320371;28;96015;-47
2023/12/19 08:41:37;;;;;;;;;;;16.40;65.90;;;;;;10308185;28;94019;-47
2023/12/19 08:46:39;;;;;;;;;;;16.30;65.90;;;;;;10323791;28;94187;-47
2023/12/19 08:51:47;;;;;;;;;;;16.30;66.10;;;;;;10323790;28;93816;-43
2023/12/19 08:56:49;;;;;;;;;;;16.30;66.10;;;;;;10324698;28;93248;-44
2023/12/19 09:01:50;;;;;;;;;;;16.30;65.90;;;;;;10324367;28;93500;-49
2023/12/19 09:06:52;;;;;;;;;;;16.20;65.90;;;;;;10323054;28;94060;-44
2023/12/19 09:11:54;;;;;;;;;;;16.20;65.80;;;;;;10314730;28;92708;-46
2023/12/19 09:16:56;;;;;;;;;;;16.20;65.80;;;;;;10322097;28;94418;-48
2023/12/19 09:21:58;;;;;;;;;;;16.20;65.80;;;;;;10313321;28;93394;-51
2023/12/19 09:27:00;;;;;;;;;;;16.10;65.80;;;;;;10320576;28;96969;-49
2023/12/19 09:32:04;;;;;;;;;;;16.10;65.70;;;;;;10322031;28;93464;-49
2023/12/19 09:37:07;;;;;;;;;;;16.10;65.70;;;;;;10324926;28;94959;-44
2023/12/19 09:42:09;;;;;;;;;;;16.10;65.60;;;;;;10330220;28;94038;-48
2023/12/19 09:47:12;;;;;;;;;;;16.00;65.60;;;;;;10330892;28;94286;-45
2023/12/19 09:52:15;;;;;;;;;;;16.00;65.50;;;;;;10329169;28;94608;-47
2023/12/19 09:57:17;;;;;;;;;;;16.00;65.50;;;;;;10329127;28;93491;-47
2023/12/19 10:02:18;;;;;;;;;;;16.00;65.50;;;;;;10329882;28;93505;-44
2023/12/19 10:07:20;;;;;;;;;;;16.00;65.50;;;;;;10329568;28;93442;-46
2023/12/19 10:12:27;;;;;;;;;;;16.00;65.40;;;;;;10328846;28;93453;-44
2023/12/19 10:17:39;;;;;;;;;;;16.00;65.50;;;;;;10310182;28;97292;-44
2023/12/19 10:22:45;;;;;;;;;;;16.00;65.40;;;;;;10309739;28;94472;-45
2023/12/19 10:27:47;;;;;;;;;;;16.00;65.30;;;;;;10326158;28;93455;-47
2023/12/19 10:32:55;;;;;;;;;;;16.00;65.30;;;;;;10328787;28;93431;-50
2023/12/19 10:37:58;;;;;;;;;;;16.00;65.20;;;;;;10322518;28;93010;-48
2023/12/19 10:43:00;;;;;;;;;;;16.00;65.20;;;;;;10321261;28;93417;-49
2023/12/19 10:48:03;;;;;;;;;;;16.00;65.20;;;;;;10327052;28;94496;-44
2023/12/19 10:53:06;;;;;;;;;;;16.00;65.20;;;;;;10329734;28;92188;-47
2023/12/19 10:58:09;;;;;;;;;;;16.00;65.20;;;;;;10307738;28;93456;-44
2023/12/19 11:03:17;;;;;;;;;;;16.00;65.20;;;;;;10327280;28;93585;-45
2023/12/19 11:08:19;;;;;;;;;;;16.00;65.20;;;;;;10325971;28;95753;-47
2023/12/19 11:13:21;;;;;;;;;;;16.00;65.20;;;;;;10327957;28;94236;-45
2023/12/19 11:18:43;;;;;;;;;;;15.90;65.20;;;;;;10327889;28;92845;-48
2023/12/19 11:23:48;;;;;;;;;;;15.90;65.10;;;;;;10323446;28;95364;-46
2023/12/19 11:28:50;;;;;;;;;;;15.90;65.20;;;;;;10327535;28;93548;-47
2023/12/19 11:33:52;;;;;;;;;;;15.90;65.20;;;;;;10312395;28;93337;-46
2023/12/19 11:39:12;;;;;;;;;;;15.90;65.20;;;;;;10307761;28;93818;-49
2023/12/19 11:44:35;;;;;;;;;;;15.90;65.20;;;;;;10326995;28;92851;-46
2023/12/19 11:49:37;;;;;;;;;;;15.90;65.20;;;;;;10323222;28;93521;-45
2023/12/19 11:54:39;;;;;;;;;;;15.80;65.20;;;;;;10323177;28;93391;-44
2023/12/19 12:00:00;;;;;;;;;;;15.90;65.20;;;;;;10322180;28;96038;-44
2023/12/19 12:05:08;;;;;;;;;;;15.80;65.20;;;;;;10326582;28;93807;-45
2023/12/19 12:10:12;;;;;;;;;;;15.80;65.20;;;;;;10325760;28;93458;-47
2023/12/19 12:15:16;;;;;;;;;;;15.80;65.30;;;;;;10317178;28;94081;-48
2023/12/19 12:20:25;;;;;;;;;;;15.80;65.30;;;;;;10325992;28;94561;-47
2023/12/19 12:25:27;;;;;;;;;;;15.80;65.30;;;;;;10326039;28;94106;-47
2023/12/19 12:30:31;;;;;;;;;;;15.80;65.30;;;;;;10324173;28;94030;-45
2023/12/19 12:35:35;;;;;;;;;;;15.80;65.30;;;;;;10319780;28;94199;-46
2023/12/19 12:40:37;;;;;;;;;;;15.80;65.30;;;;;;10324232;28;93533;-43
2023/12/19 12:45:39;;;;;;;;;;;15.70;65.30;;;;;;10306203;28;94633;-49
2023/12/19 12:50:41;;;;;;;;;;;15.70;65.30;;;;;;10296791;28;96607;-45
2023/12/19 12:55:43;;;;;;;;;;;15.70;65.40;;;;;;10324699;28;93800;-44
2023/12/19 13:00:45;;;;;;;;;;;15.70;65.40;;;;;;10323903;28;94842;-63
2023/12/19 13:05:48;;;;;;;;;;;15.70;65.40;;;;;;10325056;28;93470;-62
2023/12/19 13:10:49;;;;;;;;;;;15.70;65.40;;;;;;10325065;28;94395;-49
2023/12/19 13:15:52;;;;;;;;;;;15.70;65.40;;;;;;10313070;28;93489;-43
2023/12/19 13:20:54;;;;;;;;;;;15.70;65.40;;;;;;10330960;28;93149;-44
2023/12/19 13:25:57;;;;;;;;;;;15.70;65.40;;;;;;10331958;28;92729;-45
2023/12/19 13:30:59;;;;;;;;;;;15.70;65.50;;;;;;10329626;28;93453;-53
2023/12/19 13:36:01;;;;;;;;;;;15.70;65.50;;;;;;10331146;28;92718;-45
2023/12/19 13:41:03;;;;;;;;;;;15.60;65.50;;;;;;10327092;28;95794;-46
2023/12/19 13:46:06;;;;;;;;;;;15.70;65.50;;;;;;10330091;28;93951;-47
2023/12/19 13:51:08;;;;;;;;;;;15.70;65.50;;;;;;10329107;28;94657;-45
2023/12/19 13:56:10;;;;;;;;;;;15.70;65.40;;;;;;10329775;28;93321;-45
2023/12/19 14:01:11;;;;;;;;;;;15.70;65.40;;;;;;10311525;28;93499;-47
2023/12/19 14:06:16;;;;;;;;;;;15.70;65.40;;;;;;10329137;28;94308;-48
2023/12/19 14:11:18;;;;;;;;;;;15.70;65.40;;;;;;10329260;28;93583;-43
2023/12/19 14:16:20;;;;;;;;;;;15.70;65.40;;;;;;10330573;28;93194;-47
2023/12/19 14:21:22;;;;;;;;;;;15.70;65.40;;;;;;10328181;28;94923;-43
2023/12/19 14:26:24;;;;;;;;;;;15.70;65.40;;;;;;10327687;28;93453;-46
2023/12/19 14:31:26;;;;;;;;;;;15.70;65.40;;;;;;10326366;28;99245;-48
2023/12/19 14:36:28;;;;;;;;;;;15.70;65.30;;;;;;10329356;28;96211;-42
2023/12/19 14:41:30;;;;;;;;;;;15.70;65.30;;;;;;10299823;28;93389;-45
2023/12/19 14:46:32;;;;;;;;;;;15.70;65.40;;;;;;10328739;28;93414;-44
2023/12/19 14:51:34;;;;;;;;;;;15.60;65.30;;;;;;10329560;28;93644;-46
2023/12/19 14:56:36;;;;;;;;;;;15.70;65.40;;;;;;10328055;28;94491;-45
2023/12/19 15:01:38;;;;;;;;;;;15.70;65.40;;;;;;10326629;28;93423;-46
2023/12/19 15:06:40;;;;;;;;;;;15.60;65.40;;;;;;10328721;28;93382;-47
2023/12/19 15:11:42;;;;;;;;;;;15.60;65.40;;;;;;10320056;28;93404;-49
2023/12/19 15:16:46;;;;;;;;;;;15.60;65.40;;;;;;10329219;28;93624;-49
2023/12/19 15:21:48;;;;;;;;;;;15.60;65.40;;;;;;10324218;28;95889;-72
2023/12/19 15:26:50;;;;;;;;;;;15.60;65.40;;;;;;10327466;28;92643;-47
2023/12/19 15:31:52;;;;;;;;;;;15.60;65.40;;;;;;10328205;28;93405;-46
2023/12/19 15:36:55;;;;;;;;;;;15.60;65.50;;;;;;10326274;28;94876;-46
2023/12/19 15:41:57;;;;;;;;;;;15.60;65.50;;;;;;10326732;28;93648;-47
2023/12/19 15:46:59;;;;;;;;;;;15.60;65.50;;;;;;10327615;28;93951;-45
2023/12/19 15:52:01;;;;;;;;;;;15.60;65.50;;;;;;10318607;28;93622;-48
2023/12/19 15:57:03;;;;;;;;;;;15.50;65.50;;;;;;10327077;28;92775;-46
2023/12/19 16:02:07;;;;;;;;;;;15.50;65.50;;;;;;10325430;28;94530;-44
2023/12/19 16:07:09;;;;;;;;;;;15.50;65.50;;;;;;10326636;28;93608;-46
2023/12/19 16:12:11;;;;;;;;;;;15.50;65.50;;;;;;10324066;28;95685;-43
2023/12/19 16:17:13;;;;;;;;;;;15.50;65.50;;;;;;10318695;28;94142;-46
2023/12/19 16:22:15;;;;;;;;;;;15.50;65.60;;;;;;10306210;28;94277;-45
2023/12/19 16:27:21;;;;;;;;;;;15.60;65.50;;;;;;10325662;28;93191;-46
2023/12/19 16:32:23;;;;;;;;;;;15.70;65.20;;;;;;10325912;28;94378;-45
2023/12/19 16:37:24;;;;;;;;;;;15.70;65.10;;;;;;10322366;28;93429;-46
2023/12/19 16:42:26;;;;;;;;;;;15.70;65.90;;;;;;10323355;28;93868;-46
2023/12/19 16:47:28;;;;;;;;;;;15.70;66.10;;;;;;10316716;28;92818;-46
2023/12/19 16:52:30;;;;;;;;;;;15.80;66.10;;;;;;10318226;28;93567;-45
2023/12/19 16:57:35;;;;;;;;;;;15.80;65.70;;;;;;10321714;28;93602;-60
2023/12/19 17:02:37;;;;;;;;;;;15.80;66.10;;;;;;10316010;28;95130;-45
2023/12/19 17:07:42;;;;;;;;;;;16.00;67.60;;;;;;10322430;28;94096;-45
2023/12/19 17:12:46;;;;;;;;;;;16.20;67.20;;;;;;10318328;28;93663;-50
2023/12/19 17:17:48;;;;;;;;;;;16.40;67.00;;;;;;10323784;28;94820;-45
2023/12/19 17:22:50;;;;;;;;;;;16.50;66.20;;;;;;10308974;28;94342;-46
2023/12/19 17:27:51;;;;;;;;;;;16.70;65.90;;;;;;10303808;28;93865;-44
2023/12/19 17:32:53;;;;;;;;;;;16.90;65.60;;;;;;10319783;28;93950;-46
2023/12/19 17:37:55;;;;;;;;;;;17.20;65.00;;;;;;10300242;28;93849;-45
2023/12/19 17:42:57;;;;;;;;;;;17.30;64.50;;;;;;10322369;28;94248;-48
2023/12/19 17:47:59;;;;;;;;;;;17.60;64.40;;;;;;10322456;28;93686;-47
2023/12/19 17:53:01;;;;;;;;;;;17.70;63.80;;;;;;10312555;28;96998;-48
2023/12/19 17:58:03;;;;;;;;;;;17.80;63.40;;;;;;10320634;28;93435;-49
2023/12/19 18:03:04;;;;;;;;;;;17.90;63.60;;;;;;10329085;28;94585;-47
2023/12/19 18:08:07;;;;;;;;;;;17.90;63.00;;;;;;10329111;28;93303;-50
2023/12/19 18:13:08;;;;;;;;;;;17.90;62.80;;;;;;10328851;28;93920;-48
2023/12/19 18:18:10;;;;;;;;;;;17.80;62.90;;;;;;10328605;28;93930;-51
2023/12/19 18:23:12;;;;;;;;;;;17.80;63.00;;;;;;10327769;28;93717;-48
2023/12/19 18:28:14;;;;;;;;;;;17.80;62.90;;;;;;10320921;28;92668;-50
2023/12/19 18:33:16;;;;;;;;;;;17.90;62.90;;;;;;10305397;28;93456;-45
2023/12/19 18:38:20;;;;;;;;;;;18.00;62.70;;;;;;10327491;28;94401;-45
2023/12/19 18:43:22;;;;;;;;;;;18.10;62.30;;;;;;10324754;28;95861;-43
2023/12/19 18:48:25;;;;;;;;;;;18.10;62.20;;;;;;10325971;28;94074;-44
2023/12/19 18:53:27;;;;;;;;;;;18.00;62.10;;;;;;10326126;28;94724;-44
2023/12/19 18:58:29;;;;;;;;;;;18.00;62.30;;;;;;10325210;28;93389;-46
2023/12/19 19:03:31;;;;;;;;;;;18.00;62.10;;;;;;10327263;28;93983;-49
2023/12/19 19:08:33;;;;;;;;;;;18.00;62.10;;;;;;10324323;28;93631;-48
2023/12/19 19:13:35;;;;;;;;;;;17.90;62.00;;;;;;10324800;28;94199;-51
2023/12/19 19:18:37;;;;;;;;;;;17.90;62.30;;;;;;10327618;28;94291;-49
2023/12/19 19:23:39;;;;;;;;;;;18.00;62.30;;;;;;10324048;28;94014;-64
2023/12/19 19:28:41;;;;;;;;;;;18.10;62.10;;;;;;10327099;28;94330;-46
2023/12/19 19:33:42;;;;;;;;;;;18.20;61.80;;;;;;10316705;28;96668;-47
2023/12/19 19:38:44;;;;;;;;;;;18.30;62.50;;;;;;10325134;28;93688;-47
2023/12/19 19:43:47;;;;;;;;;;;18.30;61.40;;;;;;10324265;28;95397;-48
2023/12/19 19:48:49;;;;;;;;;;;18.20;61.40;;;;;;10324585;28;94212;-47
2023/12/19 19:53:51;;;;;;;;;;;18.20;61.40;;;;;;10325117;28;93685;-48
2023/12/19 19:58:54;;;;;;;;;;;18.30;61.40;;;;;;10325869;28;93866;-48
2023/12/19 20:03:55;;;;;;;;;;;18.20;61.30;;;;;;10324830;28;94672;-45
2023/12/19 20:08:57;;;;;;;;;;;18.10;61.40;;;;;;10325657;28;93235;-46
2023/12/19 20:13:59;;;;;;;;;;;18.10;61.60;;;;;;10324234;28;93086;-50
2023/12/19 20:19:01;;;;;;;;;;;18.20;61.60;;;;;;10315489;28;94604;-50
2023/12/19 20:24:03;;;;;;;;;;;18.20;61.50;;;;;;10321783;28;96545;-44
2023/12/19 20:29:06;;;;;;;;;;;18.20;61.30;;;;;;10322093;28;94140;-45
2023/12/19 20:34:08;;;;;;;;;;;18.10;61.40;;;;;;10320105;28;93431;-46
2023/12/19 20:39:11;;;;;;;;;;;18.20;61.60;;;;;;10325798;28;94646;-44
2023/12/19 20:44:13;;;;;;;;;;;18.20;61.40;;;;;;10323076;28;92897;-44
2023/12/19 20:49:15;;;;;;;;;;;18.20;61.20;;;;;;10324116;28;93658;-44
2023/12/19 20:54:18;;;;;;;;;;;18.10;61.30;;;;;;10324116;28;93509;-46
2023/12/19 20:59:21;;;;;;;;;;;18.10;61.40;;;;;;10324711;28;93416;-44
2023/12/19 21:04:23;;;;;;;;;;;17.90;61.40;;;;;;10324113;28;94146;-44
2023/12/19 21:09:25;;;;;;;;;;;17.80;61.70;;;;;;10324129;28;94530;-45
2023/12/19 21:14:27;;;;;;;;;;;17.70;61.90;;;;;;10321486;28;95827;-46
2023/12/19 21:19:29;;;;;;;;;;;17.60;62.00;;;;;;10322950;28;93467;-48
2023/12/19 21:24:31;;;;;;;;;;;17.50;62.20;;;;;;10322853;28;94684;-50
2023/12/19 21:29:33;;;;;;;;;;;17.40;62.40;;;;;;10323959;28;93776;-45
2023/12/19 21:34:38;;;;;;;;;;;17.40;62.60;;;;;;10320955;28;93870;-44
2023/12/19 21:39:39;;;;;;;;;;;17.30;62.80;;;;;;10327964;28;93421;-47
2023/12/19 21:44:41;;;;;;;;;;;17.20;63.50;;;;;;10322472;28;93937;-46
2023/12/19 21:49:44;;;;;;;;;;;17.20;63.20;;;;;;10326755;28;92567;-49
2023/12/19 21:54:46;;;;;;;;;;;17.10;63.20;;;;;;10325685;28;96255;-46
2023/12/19 21:59:48;;;;;;;;;;;17.10;63.30;;;;;;10327994;28;93614;-44
2023/12/19 22:04:50;;;;;;;;;;;17.00;63.50;;;;;;10322876;28;96504;-50
2023/12/19 22:09:53;;;;;;;;;;;16.90;63.50;;;;;;10330104;28;93449;-48
2023/12/19 22:15:06;;;;;;;;;;;16.90;63.70;;;;;;10322547;28;94885;-49
2023/12/19 22:20:08;;;;;;;;;;;16.90;63.70;;;;;;10329385;28;93380;-48
2023/12/19 22:25:10;;;;;;;;;;;16.80;63.70;;;;;;10299326;28;93397;-48
2023/12/19 22:30:12;;;;;;;;;;;16.80;63.90;;;;;;10328313;28;93512;-45
2023/12/19 22:35:14;;;;;;;;;;;16.70;63.90;;;;;;10316930;28;93644;-47
2023/12/19 22:40:16;;;;;;;;;;;16.60;63.90;;;;;;10327342;28;92768;-44
2023/12/19 22:45:18;;;;;;;;;;;16.60;63.90;;;;;;10316386;28;93519;-46
2023/12/19 22:50:20;;;;;;;;;;;16.60;64.10;;;;;;10299397;28;93466;-46
2023/12/19 22:55:22;;;;;;;;;;;16.50;64.00;;;;;;10315612;28;97480;-47
2023/12/19 23:00:24;;;;;;;;;;;16.50;64.10;;;;;;10318923;28;94016;-46
2023/12/19 23:05:26;;;;;;;;;;;16.50;64.20;;;;;;10316799;28;96299;-45
2023/12/19 23:10:29;;;;;;;;;;;16.40;64.20;;;;;;10320932;28;93512;-48
2023/12/19 23:15:31;;;;;;;;;;;16.40;64.20;;;;;;10320091;28;94206;-52
2023/12/19 23:20:33;;;;;;;;;;;16.40;64.30;;;;;;10316840;28;93430;-50
2023/12/19 23:25:35;;;;;;;;;;;16.30;64.20;;;;;;10319230;28;94032;-44
2023/12/19 23:30:37;;;;;;;;;;;16.30;64.20;;;;;;10328220;28;94076;-46
2023/12/19 23:35:39;;;;;;;;;;;16.30;64.40;;;;;;10326993;28;94929;-48
2023/12/19 23:40:40;;;;;;;;;;;16.30;64.40;;;;;;10326759;28;93951;-60
2023/12/19 23:45:42;;;;;;;;;;;16.30;64.40;;;;;;10325271;28;97235;-46
2023/12/19 23:50:45;;;;;;;;;;;16.20;64.40;;;;;;10319817;28;94043;-48
2023/12/19 23:55:46;;;;;;;;;;;16.20;64.50;;;;;;10321506;28;94973;-47
